createdAt,value
2022-11-08T00:00:02.997Z,71
2022-11-08T00:20:03.013Z,71
2022-11-08T00:40:03.337Z,72
2022-11-08T01:00:02.928Z,72
2022-11-08T01:20:02.617Z,72
2022-11-08T01:40:03.237Z,72
2022-11-08T02:00:02.664Z,73
2022-11-08T02:20:02.586Z,73
2022-11-08T02:40:03.188Z,74
2022-11-08T03:00:02.575Z,74
2022-11-08T03:20:02.293Z,74
2022-11-08T03:40:02.822Z,74
2022-11-08T04:00:03.310Z,74
2022-11-08T04:20:03.316Z,75
2022-11-08T04:40:02.842Z,76
2022-11-08T05:00:03.355Z,76
2022-11-08T05:20:02.992Z,76
2022-11-08T05:40:02.842Z,76
2022-11-08T06:00:03.240Z,76
2022-11-08T06:20:02.990Z,76
2022-11-08T06:40:02.390Z,77
2022-11-08T07:00:02.741Z,77
2022-11-08T07:20:02.355Z,77
2022-11-08T07:40:02.912Z,77
2022-11-08T08:00:07.950Z,77
2022-11-08T08:20:02.775Z,77
2022-11-08T08:40:03.472Z,76
2022-11-08T09:20:02.787Z,72
2022-11-08T09:40:03.658Z,70
2022-11-08T10:00:03.173Z,68
2022-11-08T10:20:07.523Z,65
2022-11-08T10:40:03.396Z,63
2022-11-08T11:00:02.911Z,62
2022-11-08T11:20:02.600Z,61
2022-11-08T11:40:03.410Z,60
2022-11-08T12:00:03.020Z,58
2022-11-08T12:20:02.739Z,58
2022-11-08T12:40:03.243Z,57
2022-11-08T13:00:02.825Z,57
2022-11-08T13:20:05.813Z,57
2022-11-08T13:40:02.631Z,58
2022-11-08T14:00:03.297Z,59
2022-11-08T14:20:02.704Z,60
2022-11-08T14:40:03.506Z,62
2022-11-08T15:00:02.961Z,62
2022-11-08T15:20:02.455Z,63
2022-11-08T15:40:03.215Z,64
2022-11-08T16:00:03.189Z,64
2022-11-08T16:20:02.944Z,65
2022-11-08T16:40:02.533Z,65
2022-11-08T17:00:03.031Z,66
2022-11-08T17:20:02.868Z,67
2022-11-08T17:40:02.255Z,67
2022-11-08T18:00:03.015Z,67
2022-11-08T18:20:02.425Z,68
2022-11-08T18:40:02.888Z,68
2022-11-08T19:00:02.675Z,68
2022-11-08T19:20:02.716Z,68
2022-11-08T19:40:03.451Z,67
2022-11-08T20:00:03.183Z,67
2022-11-08T20:20:03.169Z,66
2022-11-08T20:40:02.883Z,66
2022-11-08T21:00:13.695Z,67
2022-11-08T21:20:02.733Z,67
2022-11-08T21:40:03.192Z,67
2022-11-08T22:00:02.566Z,67
2022-11-08T22:20:02.397Z,67
2022-11-08T22:40:02.851Z,67
2022-11-08T23:00:03.209Z,67
2022-11-08T23:20:02.735Z,67
2022-11-08T23:40:03.261Z,67
